Arleta, California
Current Conditions -  °F | °C
As of 3:53 AM on Friday 31 Oct 2014 (Local Time) from KBUR Reporting Station
Haze Haze  
Wind Chill: 60°   Ceiling: 1100
Heat Index: 60°   Visibility: 10mi
Dew Point: 54°   Wind: 0mph
Humidity: 80%   Direction: NA
Pressure: 29.95"   Gusts: NA
Location:  34.2574°N, 118.255°W
Report Text: KBUR 311053Z AUTO 00000KT 10SM HZ BKN011 16/12 A2995 RMK AO2 SLP129 T01560122 TSNO
Loading
Personal Weather Stations






























Interactive Weather Map
Tropical Storm Tracking
New forecast layout! Learn more

10-Day Weather Forecast

Advertisements
Track Severe Weather on mobile